Time;durP1;ratioP1;P1;durP2;ratioP2;P2;SDS_P1;SDS_P2;PMS_P1;PMS_P2;Temp;Humidity;BMP_temperature;BMP_pressure;BME280_temperature;BME280_humidity;BME280_pressure;Samples;Min_cycle;Max_cycle;Signal;HPM_P1;HPM_P2
2022/03/02 00:01:26;;;;;;;;;;;-4.50;99.90;;;;;;5069582;28;19946;-74
2022/03/02 00:03:51;;;;;;;;;;;-4.50;99.90;;;;;;5070514;28;19956;-72
2022/03/02 00:06:17;;;;;;;;;;;-4.50;99.90;;;;;;5071032;28;19919;-73
2022/03/02 00:08:43;;;;;;;;;;;-4.60;99.90;;;;;;5068153;28;19916;-73
2022/03/02 00:11:09;;;;;;;;;;;-4.50;99.90;;;;;;5075123;28;19917;-72
2022/03/02 00:13:35;;;;;;;;;;;-4.50;99.90;;;;;;5074343;28;20281;-73
2022/03/02 00:16:00;;;;;;;;;;;-4.40;99.90;;;;;;5074445;28;19917;-72
2022/03/02 00:18:26;;;;;;;;;;;-4.50;99.90;;;;;;5074450;28;20327;-73
2022/03/02 00:20:52;;;;;;;;;;;-4.30;99.90;;;;;;5076407;28;20365;-72
2022/03/02 00:23:29;;;;;;;;;;;-4.40;99.90;;;;;;5074544;28;19919;-73
2022/03/02 00:25:55;;;;;;;;;;;-4.50;99.90;;;;;;5074380;28;19916;-72
2022/03/02 00:28:21;;;;;;;;;;;-4.40;99.90;;;;;;5074210;28;19928;-72
2022/03/02 00:30:46;;;;;;;;;;;-4.20;99.90;;;;;;5074108;28;19919;-72
2022/03/02 00:33:12;;;;;;;;;;;-4.00;99.90;;;;;;5072545;28;19917;-72
2022/03/02 00:35:38;;;;;;;;;;;-4.00;99.90;;;;;;5074182;28;19912;-72
2022/03/02 00:38:04;;;;;;;;;;;-3.80;99.90;;;;;;5069838;28;20380;-73
2022/03/02 00:40:30;;;;;;;;;;;-3.80;99.90;;;;;;5074758;28;20358;-72
2022/03/02 00:42:56;;;;;;;;;;;-3.90;99.90;;;;;;5073501;28;19999;-72
2022/03/02 00:45:21;;;;;;;;;;;-3.90;99.90;;;;;;5073766;28;19948;-72
2022/03/02 00:47:47;;;;;;;;;;;-3.90;99.90;;;;;;5067292;28;19954;-72
2022/03/02 00:50:13;;;;;;;;;;;-3.80;99.90;;;;;;5072550;28;19912;-72
2022/03/02 00:52:39;;;;;;;;;;;-3.90;99.90;;;;;;5073496;28;20003;-72
2022/03/02 00:55:05;;;;;;;;;;;-3.90;99.90;;;;;;5073563;28;19955;-72
2022/03/02 00:57:30;;;;;;;;;;;-3.80;99.90;;;;;;5073715;28;19912;-72
2022/03/02 00:59:56;;;;;;;;;;;-3.80;99.90;;;;;;5073649;28;20281;-72
2022/03/02 01:02:21;;;;;;;;;;;-3.80;99.90;;;;;;5073543;28;20108;-72
2022/03/02 01:04:47;;;;;;;;;;;-3.90;99.90;;;;;;5073302;28;19909;-72
2022/03/02 01:07:12;;;;;;;;;;;-4.00;99.90;;;;;;5073357;28;19908;-72
2022/03/02 01:09:38;;;;;;;;;;;-4.10;99.90;;;;;;5078172;28;19909;-72
2022/03/02 01:12:04;;;;;;;;;;;-4.10;99.90;;;;;;5073203;28;19912;-72
2022/03/02 01:14:29;;;;;;;;;;;-4.00;99.90;;;;;;5073144;28;19992;-72
2022/03/02 01:16:54;;;;;;;;;;;-4.00;99.90;;;;;;5073344;28;19917;-73
2022/03/02 01:19:20;;;;;;;;;;;-4.10;99.90;;;;;;5073290;28;19913;-72
2022/03/02 01:21:46;;;;;;;;;;;-4.20;99.90;;;;;;5073014;28;19908;-72
2022/03/02 01:24:11;;;;;;;;;;;-4.20;99.90;;;;;;5077257;28;19987;-72
2022/03/02 01:26:37;;;;;;;;;;;-4.10;99.90;;;;;;5076316;28;19981;-72
2022/03/02 01:29:03;;;;;;;;;;;-4.20;99.90;;;;;;5078227;28;19916;-72
2022/03/02 01:31:29;;;;;;;;;;;-4.20;99.90;;;;;;5073057;28;19917;-72
2022/03/02 01:33:54;;;;;;;;;;;-4.30;99.90;;;;;;5065651;28;19953;-72
2022/03/02 01:36:20;;;;;;;;;;;-4.40;99.90;;;;;;5071676;28;20388;-72
2022/03/02 01:38:46;;;;;;;;;;;-4.30;99.90;;;;;;5073420;28;19934;-72
2022/03/02 01:41:13;;;;;;;;;;;-4.30;99.90;;;;;;5081960;28;20498;-72
2022/03/02 01:43:38;;;;;;;;;;;-4.40;99.90;;;;;;5072545;28;20015;-72
2022/03/02 01:46:04;;;;;;;;;;;-4.30;99.90;;;;;;5072826;28;20281;-73
2022/03/02 01:48:29;;;;;;;;;;;-4.20;99.90;;;;;;5072722;28;19908;-72
2022/03/02 01:50:55;;;;;;;;;;;-4.30;99.90;;;;;;5072899;28;19912;-73
2022/03/02 01:53:20;;;;;;;;;;;-4.40;99.90;;;;;;5071578;28;19916;-72
2022/03/02 01:55:46;;;;;;;;;;;-4.50;99.90;;;;;;5072886;28;20411;-72
2022/03/02 01:58:11;;;;;;;;;;;-4.40;99.90;;;;;;5071225;28;19908;-72
2022/03/02 02:00:37;;;;;;;;;;;-4.20;99.90;;;;;;5072444;28;19912;-73
2022/03/02 02:03:02;;;;;;;;;;;-4.30;99.90;;;;;;5072353;28;19916;-72
2022/03/02 02:17:41;;;;;;;;;;;-4.40;99.90;;;;;;5071981;28;19927;-72
2022/03/02 02:20:07;;;;;;;;;;;-4.60;99.90;;;;;;5070695;28;19913;-72
2022/03/02 02:22:59;;;;;;;;;;;-4.40;99.90;;;;;;5077980;28;20222;-72
2022/03/02 02:25:26;;;;;;;;;;;-4.40;99.90;;;;;;5063353;28;20412;-72
2022/03/02 02:27:51;;;;;;;;;;;-4.30;99.90;;;;;;5071633;28;19966;-73
2022/03/02 02:30:17;;;;;;;;;;;-4.30;99.90;;;;;;5074593;28;19923;-72
2022/03/02 02:32:43;;;;;;;;;;;-4.40;99.90;;;;;;5075690;28;20011;-73
2022/03/02 02:35:10;;;;;;;;;;;-4.40;99.90;;;;;;5071425;28;19934;-72
2022/03/02 02:37:36;;;;;;;;;;;-4.50;99.90;;;;;;5070142;28;19916;-72
2022/03/02 02:40:04;;;;;;;;;;;-4.70;99.90;;;;;;5072759;28;19908;-72
2022/03/02 02:42:29;;;;;;;;;;;-4.80;99.90;;;;;;5071675;28;19934;-72
2022/03/02 02:44:55;;;;;;;;;;;-5.00;99.90;;;;;;5071578;28;19913;-73
2022/03/02 02:47:21;;;;;;;;;;;-5.00;99.90;;;;;;5066679;28;19912;-72
2022/03/02 02:49:46;;;;;;;;;;;-5.00;99.90;;;;;;5076417;28;20026;-73
2022/03/02 02:52:12;;;;;;;;;;;-5.10;99.90;;;;;;5071632;28;19923;-72
2022/03/02 02:54:37;;;;;;;;;;;-5.10;99.90;;;;;;5064888;28;19908;-72
2022/03/02 02:57:04;;;;;;;;;;;-5.20;99.90;;;;;;5071503;28;19912;-72
2022/03/02 02:59:30;;;;;;;;;;;-5.30;99.90;;;;;;5065412;28;19909;-72
2022/03/02 03:01:56;;;;;;;;;;;-5.20;99.90;;;;;;5071791;28;20014;-72
2022/03/02 03:04:21;;;;;;;;;;;-5.20;99.90;;;;;;5071461;28;19966;-72
2022/03/02 03:06:47;;;;;;;;;;;-5.30;99.90;;;;;;5070349;28;19912;-73
2022/03/02 03:09:12;;;;;;;;;;;-5.50;99.90;;;;;;5071585;28;19951;-72
2022/03/02 03:11:40;;;;;;;;;;;-5.60;99.90;;;;;;5071386;28;19919;-72
2022/03/02 03:14:09;;;;;;;;;;;-5.50;99.90;;;;;;5071175;28;19999;-72
2022/03/02 03:16:34;;;;;;;;;;;-5.40;99.90;;;;;;5071449;28;19920;-72
2022/03/02 03:19:00;;;;;;;;;;;-5.30;99.90;;;;;;5071478;28;20220;-72
2022/03/02 03:21:25;;;;;;;;;;;-5.30;99.90;;;;;;5071347;28;19915;-72
2022/03/02 03:23:51;;;;;;;;;;;-5.40;99.90;;;;;;5071186;28;19909;-72
2022/03/02 03:26:16;;;;;;;;;;;-5.60;99.90;;;;;;5071340;28;19919;-72
2022/03/02 03:28:42;;;;;;;;;;;-5.70;99.90;;;;;;5067719;28;19912;-72
2022/03/02 03:31:08;;;;;;;;;;;-5.50;99.90;;;;;;5070965;28;19990;-73
2022/03/02 03:33:33;;;;;;;;;;;-5.70;99.90;;;;;;5067990;28;19909;-73
2022/03/02 03:35:59;;;;;;;;;;;-5.70;99.90;;;;;;5071243;28;19908;-73
2022/03/02 03:38:24;;;;;;;;;;;-5.70;99.90;;;;;;5071323;28;20005;-73
2022/03/02 03:40:50;;;;;;;;;;;-5.60;99.90;;;;;;5071125;28;20422;-72
2022/03/02 03:43:15;;;;;;;;;;;-5.70;99.90;;;;;;5070845;28;19908;-73
2022/03/02 03:45:41;;;;;;;;;;;-5.60;99.90;;;;;;5071232;28;19908;-72
2022/03/02 03:48:06;;;;;;;;;;;-5.60;99.90;;;;;;5074478;28;19951;-73
2022/03/02 03:50:32;;;;;;;;;;;-5.50;99.90;;;;;;5075042;28;19916;-73
2022/03/02 03:52:57;;;;;;;;;;;-5.50;99.90;;;;;;5074817;28;20327;-73
2022/03/02 03:55:23;;;;;;;;;;;-5.50;99.90;;;;;;5073671;28;19915;-73
2022/03/02 03:57:48;;;;;;;;;;;-5.60;99.90;;;;;;5074636;28;19999;-73
2022/03/02 04:00:16;;;;;;;;;;;-5.60;99.90;;;;;;5074653;28;19935;-73
2022/03/02 04:02:42;;;;;;;;;;;-5.50;99.90;;;;;;5074157;28;19969;-73
2022/03/02 04:05:08;;;;;;;;;;;-5.50;99.90;;;;;;5074301;28;20377;-73
2022/03/02 04:07:33;;;;;;;;;;;-5.70;99.90;;;;;;5074530;28;19931;-72
2022/03/02 04:09:59;;;;;;;;;;;-5.40;99.90;;;;;;5074419;28;19927;-73
2022/03/02 04:12:24;;;;;;;;;;;-5.40;99.90;;;;;;5074314;28;19995;-73
2022/03/02 04:14:50;;;;;;;;;;;-5.40;99.90;;;;;;5074142;28;20338;-73
2022/03/02 04:17:15;;;;;;;;;;;-5.40;99.90;;;;;;5074287;28;19923;-73
2022/03/02 04:19:41;;;;;;;;;;;-5.40;99.90;;;;;;5074693;28;19940;-73
2022/03/02 04:22:07;;;;;;;;;;;-5.50;99.90;;;;;;5074384;28;19919;-73
2022/03/02 04:24:32;;;;;;;;;;;-5.60;99.90;;;;;;5074114;28;20369;-73
2022/03/02 04:26:58;;;;;;;;;;;-5.70;99.90;;;;;;5072526;28;19954;-73
2022/03/02 04:29:23;;;;;;;;;;;-5.50;99.90;;;;;;5074090;28;19920;-73
2022/03/02 04:31:49;;;;;;;;;;;-5.40;99.90;;;;;;5072812;28;19920;-73
2022/03/02 04:34:14;;;;;;;;;;;-5.60;99.90;;;;;;5073967;28;20022;-73
2022/03/02 04:36:40;;;;;;;;;;;-5.80;99.90;;;;;;5074167;28;20285;-73
2022/03/02 04:39:05;;;;;;;;;;;-5.80;99.90;;;;;;5074021;28;19916;-73
2022/03/02 04:41:31;;;;;;;;;;;-5.70;99.90;;;;;;5072687;28;19947;-73
2022/03/02 04:43:56;;;;;;;;;;;-5.70;99.90;;;;;;5073635;28;19948;-73
2022/03/02 04:46:22;;;;;;;;;;;-5.50;99.90;;;;;;5074106;28;19912;-73
2022/03/02 04:48:47;;;;;;;;;;;-5.50;99.90;;;;;;5074182;28;19908;-73
2022/03/02 04:51:13;;;;;;;;;;;-5.50;99.90;;;;;;5073792;28;19912;-73
2022/03/02 04:53:38;;;;;;;;;;;-5.60;99.90;;;;;;5073626;28;20019;-73
2022/03/02 04:56:04;;;;;;;;;;;-5.80;99.90;;;;;;5076802;28;20053;-73
2022/03/02 04:58:29;;;;;;;;;;;-5.80;99.90;;;;;;5075772;28;19909;-73
2022/03/02 05:00:55;;;;;;;;;;;-5.70;99.90;;;;;;5073667;28;19908;-73
2022/03/02 05:03:21;;;;;;;;;;;-5.80;99.90;;;;;;5073329;28;19970;-72
2022/03/02 05:05:46;;;;;;;;;;;-5.60;99.90;;;;;;5073952;28;19962;-72
2022/03/02 05:08:12;;;;;;;;;;;-5.50;99.90;;;;;;5073511;28;19912;-72
2022/03/02 05:10:37;;;;;;;;;;;-5.50;99.90;;;;;;5073444;28;20384;-72
2022/03/02 05:13:03;;;;;;;;;;;-5.50;99.90;;;;;;5073191;28;19908;-72
2022/03/02 05:15:30;;;;;;;;;;;-5.70;99.90;;;;;;5073160;28;20392;-72
2022/03/02 05:17:56;;;;;;;;;;;-6.00;99.90;;;;;;5073367;28;19920;-72
2022/03/02 05:20:21;;;;;;;;;;;-5.90;99.90;;;;;;5073273;28;19909;-72
2022/03/02 05:22:47;;;;;;;;;;;-5.80;99.90;;;;;;5073122;28;20312;-72
2022/03/02 05:25:13;;;;;;;;;;;-5.80;99.90;;;;;;5072760;28;19913;-72
2022/03/02 05:27:39;;;;;;;;;;;-5.80;99.90;;;;;;5084685;28;20438;-72
2022/03/02 05:30:05;;;;;;;;;;;-5.90;99.90;;;;;;5072970;28;19912;-72
2022/03/02 05:32:31;;;;;;;;;;;-5.90;99.90;;;;;;5073006;28;19915;-72
2022/03/02 05:34:56;;;;;;;;;;;-6.10;99.90;;;;;;5071508;28;20011;-72
2022/03/02 05:37:22;;;;;;;;;;;-6.10;99.90;;;;;;5071586;28;19916;-72
2022/03/02 05:39:48;;;;;;;;;;;-6.10;99.90;;;;;;5072889;28;19909;-72
2022/03/02 05:42:14;;;;;;;;;;;-6.10;99.90;;;;;;5072546;28;19931;-72
2022/03/02 05:44:39;;;;;;;;;;;-6.10;99.90;;;;;;5069820;28;19912;-72
2022/03/02 05:47:05;;;;;;;;;;;-6.10;99.90;;;;;;5072873;28;19908;-72
2022/03/02 05:49:30;;;;;;;;;;;-5.90;99.90;;;;;;5072660;28;19932;-72
2022/03/02 05:51:56;;;;;;;;;;;-5.90;99.90;;;;;;5072596;28;19919;-72
2022/03/02 05:54:22;;;;;;;;;;;-5.70;99.90;;;;;;5073069;28;19913;-72
2022/03/02 05:56:47;;;;;;;;;;;-5.70;99.90;;;;;;5074828;28;19909;-72
2022/03/02 05:59:14;;;;;;;;;;;-5.70;99.90;;;;;;5072659;28;20378;-72
2022/03/02 06:01:40;;;;;;;;;;;-5.60;99.90;;;;;;5066189;28;19908;-72
2022/03/02 06:04:06;;;;;;;;;;;-5.50;99.90;;;;;;5072481;28;19909;-72
2022/03/02 06:06:33;;;;;;;;;;;-5.50;99.90;;;;;;5066265;28;20512;-71
2022/03/02 06:08:59;;;;;;;;;;;-5.50;99.90;;;;;;5069933;28;19908;-71
2022/03/02 06:11:25;;;;;;;;;;;-5.40;99.90;;;;;;5071282;28;20007;-71
2022/03/02 06:13:51;;;;;;;;;;;-5.30;99.90;;;;;;5067474;28;20416;-71
2022/03/02 06:16:17;;;;;;;;;;;-5.20;99.90;;;;;;5071083;28;19942;-71
2022/03/02 06:18:43;;;;;;;;;;;-5.20;99.90;;;;;;5066309;28;20361;-71
2022/03/02 06:21:13;;;;;;;;;;;-5.10;99.90;;;;;;5071825;28;20007;-71
2022/03/02 06:23:39;;;;;;;;;;;-5.00;99.90;;;;;;5071323;28;20432;-71
2022/03/02 06:26:05;;;;;;;;;;;-4.80;99.90;;;;;;5071515;28;19947;-71
2022/03/02 06:28:30;;;;;;;;;;;-4.60;99.90;;;;;;5074704;28;19915;-71
2022/03/02 06:30:56;;;;;;;;;;;-4.50;99.90;;;;;;5071673;28;19912;-71
2022/03/02 06:33:21;;;;;;;;;;;-4.40;99.90;;;;;;5071391;28;19909;-71
2022/03/02 06:35:50;;;;;;;;;;;-4.40;99.90;;;;;;5071737;28;19991;-72
2022/03/02 06:38:16;;;;;;;;;;;-4.20;99.90;;;;;;5071546;28;19908;-71
2022/03/02 06:40:49;;;;;;;;;;;-4.10;99.90;;;;;;5071673;28;19931;-71
2022/03/02 06:43:18;;;;;;;;;;;-4.10;99.90;;;;;;5071363;28;20388;-71
2022/03/02 06:45:47;;;;;;;;;;;-4.00;99.90;;;;;;5071631;28;19908;-71
2022/03/02 06:48:18;;;;;;;;;;;-3.90;99.90;;;;;;5071547;28;20373;-72
2022/03/02 06:50:44;;;;;;;;;;;-3.90;99.90;;;;;;5072183;28;19912;-71
2022/03/02 06:53:14;;;;;;;;;;;-3.80;99.90;;;;;;5070037;28;19915;-71
2022/03/02 06:55:41;;;;;;;;;;;-3.80;99.90;;;;;;5071881;28;20426;-71
2022/03/02 06:58:10;;;;;;;;;;;-3.70;99.90;;;;;;5068094;28;19913;-72
2022/03/02 07:00:37;;;;;;;;;;;-3.50;99.90;;;;;;5068421;28;19909;-71
2022/03/02 07:03:02;;;;;;;;;;;-3.40;99.90;;;;;;5071855;28;19913;-72
2022/03/02 07:05:28;;;;;;;;;;;-3.20;99.90;;;;;;5071899;28;19920;-72
2022/03/02 07:07:54;;;;;;;;;;;-3.10;99.90;;;;;;5075064;28;20218;-72
2022/03/02 07:10:20;;;;;;;;;;;-3.00;99.90;;;;;;5071480;28;19913;-72
2022/03/02 07:12:45;;;;;;;;;;;-2.90;99.90;;;;;;5071982;28;19909;-72
2022/03/02 07:15:11;;;;;;;;;;;-2.70;99.90;;;;;;5073533;28;19912;-72
2022/03/02 07:17:39;;;;;;;;;;;-2.70;99.90;;;;;;5074331;28;19917;-72
2022/03/02 07:20:06;;;;;;;;;;;-2.60;99.90;;;;;;5072598;28;19912;-72
2022/03/02 07:22:33;;;;;;;;;;;-2.50;99.90;;;;;;5074561;28;19912;-72
2022/03/02 07:25:00;;;;;;;;;;;-2.40;99.90;;;;;;5076193;28;19954;-72
2022/03/02 07:27:26;;;;;;;;;;;-2.30;99.90;;;;;;5077696;28;19951;-72
2022/03/02 07:29:52;;;;;;;;;;;-2.20;99.90;;;;;;5073037;28;19921;-72
2022/03/02 07:32:28;;;;;;;;;;;-2.20;99.90;;;;;;5072185;28;19984;-72
2022/03/02 07:34:55;;;;;;;;;;;-2.20;99.90;;;;;;5070919;28;20331;-72
2022/03/02 07:37:21;;;;;;;;;;;-2.20;99.90;;;;;;5073787;28;19919;-72
2022/03/02 07:39:47;;;;;;;;;;;-2.20;99.90;;;;;;5074307;28;20075;-72
2022/03/02 07:42:13;;;;;;;;;;;-2.10;99.90;;;;;;5060027;28;20476;-72
2022/03/02 07:44:39;;;;;;;;;;;-1.90;99.90;;;;;;5071563;28;19944;-72
2022/03/02 07:47:04;;;;;;;;;;;-1.60;99.90;;;;;;5068294;28;20370;-72
2022/03/02 07:49:30;;;;;;;;;;;-1.50;99.90;;;;;;5064154;28;19920;-72
2022/03/02 07:51:57;;;;;;;;;;;-1.30;99.90;;;;;;5061899;28;19925;-72
2022/03/02 07:54:24;;;;;;;;;;;-1.20;99.90;;;;;;5070442;28;19912;-72
2022/03/02 07:56:50;;;;;;;;;;;-1.10;99.90;;;;;;5073292;28;19909;-72
2022/03/02 07:59:16;;;;;;;;;;;-0.80;99.90;;;;;;5074546;28;20321;-72
2022/03/02 08:01:43;;;;;;;;;;;-0.50;99.90;;;;;;5073425;28;20392;-72
2022/03/02 08:04:09;;;;;;;;;;;-0.30;99.90;;;;;;5066573;28;19908;-72
2022/03/02 08:06:37;;;;;;;;;;;-0.10;99.90;;;;;;5075154;28;19926;-72
2022/03/02 08:09:03;;;;;;;;;;;0.10;99.90;;;;;;5070955;28;19920;-72
2022/03/02 08:11:30;;;;;;;;;;;0.30;99.90;;;;;;5071637;28;19916;-72
2022/03/02 08:13:56;;;;;;;;;;;0.50;99.90;;;;;;5075002;28;20415;-71
2022/03/02 08:16:21;;;;;;;;;;;0.70;99.90;;;;;;5074217;28;20003;-71
2022/03/02 08:18:47;;;;;;;;;;;0.80;99.90;;;;;;5069278;28;20285;-71
2022/03/02 08:21:15;;;;;;;;;;;0.90;99.90;;;;;;5073052;28;20015;-71
2022/03/02 08:23:43;;;;;;;;;;;1.30;99.90;;;;;;5073121;28;19947;-71
2022/03/02 08:26:09;;;;;;;;;;;1.60;99.40;;;;;;5073603;28;19970;-72
2022/03/02 08:28:35;;;;;;;;;;;1.70;98.40;;;;;;5073023;28;19916;-71
2022/03/02 08:31:01;;;;;;;;;;;1.90;98.10;;;;;;5072997;28;19916;-71
2022/03/02 08:33:29;;;;;;;;;;;2.00;97.30;;;;;;5072688;28;20307;-72
2022/03/02 08:35:55;;;;;;;;;;;2.10;98.00;;;;;;5073071;28;19931;-72
2022/03/02 08:38:21;;;;;;;;;;;2.40;98.30;;;;;;5073033;28;19908;-72
2022/03/02 08:40:47;;;;;;;;;;;2.30;98.00;;;;;;5073118;28;19908;-71
2022/03/02 08:43:13;;;;;;;;;;;2.20;97.50;;;;;;5072813;28;20000;-72
2022/03/02 08:45:38;;;;;;;;;;;2.10;98.60;;;;;;5073096;28;20144;-73
2022/03/02 08:48:05;;;;;;;;;;;2.10;98.80;;;;;;5073691;28;19913;-72
2022/03/02 08:50:31;;;;;;;;;;;2.30;99.20;;;;;;5072259;28;20327;-73
2022/03/02 08:52:57;;;;;;;;;;;2.30;98.80;;;;;;5072187;28;20378;-73
2022/03/02 08:55:29;;;;;;;;;;;2.30;97.50;;;;;;5065190;28;20080;-73
2022/03/02 08:57:54;;;;;;;;;;;2.20;97.20;;;;;;5072111;28;19965;-72
2022/03/02 09:00:20;;;;;;;;;;;2.50;97.90;;;;;;5069218;28;19920;-72
2022/03/02 09:02:46;;;;;;;;;;;2.90;96.90;;;;;;5071478;28;19909;-73
2022/03/02 09:05:12;;;;;;;;;;;3.20;97.50;;;;;;5073878;28;19999;-72
2022/03/02 09:07:38;;;;;;;;;;;3.30;96.80;;;;;;5067535;28;20005;-72
2022/03/02 09:10:04;;;;;;;;;;;3.40;96.10;;;;;;5073683;28;20046;-72
2022/03/02 09:12:30;;;;;;;;;;;3.50;94.90;;;;;;5073581;28;20295;-73
2022/03/02 09:14:56;;;;;;;;;;;3.80;95.40;;;;;;5073551;28;19912;-72
2022/03/02 09:17:24;;;;;;;;;;;4.20;94.90;;;;;;5072408;28;19924;-72
2022/03/02 09:19:50;;;;;;;;;;;4.60;94.60;;;;;;5066360;28;20284;-72
2022/03/02 09:22:17;;;;;;;;;;;5.00;93.90;;;;;;5067195;28;19912;-72
2022/03/02 09:24:44;;;;;;;;;;;5.30;91.30;;;;;;5066679;28;20472;-72
2022/03/02 09:27:11;;;;;;;;;;;5.50;90.90;;;;;;5062444;28;19913;-72
2022/03/02 09:29:38;;;;;;;;;;;5.40;90.80;;;;;;5061923;28;19913;-71
2022/03/02 09:32:05;;;;;;;;;;;5.30;90.40;;;;;;5069224;28;20395;-73
2022/03/02 09:34:30;;;;;;;;;;;4.90;89.30;;;;;;5069783;28;19909;-72
2022/03/02 09:36:57;;;;;;;;;;;4.80;89.40;;;;;;5072342;28;19916;-72
2022/03/02 09:39:23;;;;;;;;;;;4.80;89.80;;;;;;5072030;28;19963;-72
2022/03/02 09:41:54;;;;;;;;;;;5.00;88.70;;;;;;5070686;28;19909;-73
2022/03/02 09:44:21;;;;;;;;;;;5.00;88.10;;;;;;5059573;28;19913;-72
2022/03/02 09:46:52;;;;;;;;;;;4.90;87.50;;;;;;5072127;28;19987;-73
2022/03/02 09:49:21;;;;;;;;;;;5.10;87.50;;;;;;5064742;28;19912;-73
2022/03/02 09:51:51;;;;;;;;;;;5.20;85.80;;;;;;5064203;28;20341;-73
2022/03/02 09:54:20;;;;;;;;;;;5.20;85.00;;;;;;5060761;28;20400;-72
2022/03/02 09:56:48;;;;;;;;;;;5.10;84.30;;;;;;5070713;28;19915;-73
2022/03/02 09:59:15;;;;;;;;;;;5.50;83.40;;;;;;5061654;28;19966;-73
2022/03/02 10:01:42;;;;;;;;;;;5.40;87.20;;;;;;5072913;28;19993;-73
2022/03/02 10:04:21;;;;;;;;;;;5.70;86.90;;;;;;5071653;28;19909;-73
2022/03/02 10:06:47;;;;;;;;;;;5.60;86.90;;;;;;5067396;28;19916;-73
2022/03/02 10:09:13;;;;;;;;;;;5.60;84.20;;;;;;5070947;28;19919;-73
2022/03/02 10:11:40;;;;;;;;;;;5.60;84.70;;;;;;5072685;28;19913;-73
2022/03/02 10:14:06;;;;;;;;;;;5.80;82.30;;;;;;5067228;28;19912;-74
2022/03/02 10:16:39;;;;;;;;;;;6.10;83.30;;;;;;5070717;28;20293;-73
2022/03/02 10:19:06;;;;;;;;;;;7.10;83.00;;;;;;5068429;28;19959;-73
2022/03/02 10:21:33;;;;;;;;;;;10.00;72.10;;;;;;5072283;28;20262;-75
2022/03/02 10:23:59;;;;;;;;;;;9.90;66.60;;;;;;5072303;28;20316;-72
2022/03/02 10:26:26;;;;;;;;;;;8.70;69.10;;;;;;5065228;28;19969;-71
2022/03/02 10:29:11;;;;;;;;;;;7.90;69.70;;;;;;5063203;28;19915;-73
2022/03/02 10:32:00;;;;;;;;;;;7.70;71.30;;;;;;5067863;28;19934;-72
2022/03/02 10:34:26;;;;;;;;;;;8.00;70.70;;;;;;5068029;28;20323;-73
2022/03/02 10:37:30;;;;;;;;;;;7.40;68.60;;;;;;5072003;28;19908;-73
2022/03/02 10:40:05;;;;;;;;;;;7.10;72.60;;;;;;5006138;28;19979;-73
2022/03/02 10:42:33;;;;;;;;;;;7.50;72.00;;;;;;5009381;28;19977;-72
2022/03/02 10:45:04;;;;;;;;;;;7.40;70.70;;;;;;5042121;28;19916;-73
2022/03/02 10:47:31;;;;;;;;;;;7.70;72.20;;;;;;5066069;28;19927;-72
2022/03/02 10:49:58;;;;;;;;;;;7.50;67.50;;;;;;5067350;28;19909;-73
2022/03/02 10:52:25;;;;;;;;;;;7.20;71.80;;;;;;5062614;28;19974;-73
2022/03/02 10:54:52;;;;;;;;;;;7.30;71.40;;;;;;5072723;28;19947;-74
2022/03/02 10:57:18;;;;;;;;;;;7.50;71.10;;;;;;5071131;28;19944;-73
2022/03/02 10:59:44;;;;;;;;;;;8.30;69.60;;;;;;5070428;28;19924;-73
2022/03/02 11:02:10;;;;;;;;;;;8.80;64.30;;;;;;5065699;28;19943;-73
2022/03/02 11:04:42;;;;;;;;;;;8.60;68.70;;;;;;5066997;28;20353;-73
2022/03/02 11:07:08;;;;;;;;;;;8.00;66.90;;;;;;5059768;28;19915;-74
2022/03/02 11:09:34;;;;;;;;;;;8.00;67.90;;;;;;5070459;28;20322;-74
2022/03/02 11:12:00;;;;;;;;;;;7.10;67.80;;;;;;5069820;28;19912;-73
2022/03/02 11:14:25;;;;;;;;;;;7.70;68.10;;;;;;5064375;28;19915;-74
2022/03/02 11:17:10;;;;;;;;;;;7.60;69.30;;;;;;5071160;28;19917;-74
2022/03/02 11:19:42;;;;;;;;;;;7.70;69.40;;;;;;5071990;28;19915;-73
2022/03/02 11:22:07;;;;;;;;;;;7.60;71.90;;;;;;5069952;28;20333;-74
2022/03/02 11:24:35;;;;;;;;;;;7.70;68.10;;;;;;5069822;28;20012;-74
2022/03/02 11:27:00;;;;;;;;;;;7.80;69.00;;;;;;5066214;28;19909;-72
2022/03/02 11:29:28;;;;;;;;;;;8.40;68.80;;;;;;5070886;28;19974;-74
2022/03/02 11:31:56;;;;;;;;;;;8.90;65.60;;;;;;5070593;28;19948;-74
2022/03/02 11:34:29;;;;;;;;;;;9.50;64.50;;;;;;5068327;28;20333;-74
2022/03/02 11:36:59;;;;;;;;;;;10.40;61.80;;;;;;5067329;28;20387;-74
2022/03/02 11:39:25;;;;;;;;;;;10.50;61.60;;;;;;5052172;28;20415;-74
2022/03/02 11:41:52;;;;;;;;;;;9.60;60.10;;;;;;5053582;28;19914;-73
2022/03/02 11:44:29;;;;;;;;;;;9.40;59.90;;;;;;5060513;28;19996;-74
2022/03/02 11:46:55;;;;;;;;;;;9.20;62.40;;;;;;5052671;28;19913;-72
2022/03/02 11:49:22;;;;;;;;;;;9.10;59.20;;;;;;5067439;28;19909;-74
2022/03/02 11:52:14;;;;;;;;;;;9.10;59.90;;;;;;5068103;28;20377;-74
2022/03/02 11:54:53;;;;;;;;;;;9.10;61.50;;;;;;5068791;28;20043;-74
2022/03/02 11:57:20;;;;;;;;;;;8.30;59.70;;;;;;5071159;28;19909;-74
2022/03/02 11:59:47;;;;;;;;;;;8.80;62.90;;;;;;5071170;28;20358;-74
2022/03/02 12:02:19;;;;;;;;;;;9.00;61.60;;;;;;5070956;28;19909;-74
2022/03/02 12:05:06;;;;;;;;;;;8.80;62.20;;;;;;5069101;28;19913;-75
2022/03/02 12:07:39;;;;;;;;;;;9.20;60.50;;;;;;5072757;28;19912;-74
2022/03/02 12:10:14;;;;;;;;;;;8.90;61.00;;;;;;5075900;28;19912;-74
2022/03/02 12:12:40;;;;;;;;;;;9.00;58.80;;;;;;5070143;28;19919;-70
2022/03/02 12:15:05;;;;;;;;;;;9.00;57.70;;;;;;5073849;28;20323;-73
2022/03/02 12:17:33;;;;;;;;;;;8.70;59.30;;;;;;5074478;28;20003;-72
2022/03/02 12:20:08;;;;;;;;;;;8.20;57.80;;;;;;5073949;28;19909;-73
2022/03/02 12:22:44;;;;;;;;;;;8.30;59.60;;;;;;5076125;28;19956;-73
2022/03/02 12:25:12;;;;;;;;;;;8.30;58.90;;;;;;5075068;28;19962;-73
2022/03/02 12:27:39;;;;;;;;;;;8.40;59.80;;;;;;5076193;28;19962;-72
2022/03/02 12:30:09;;;;;;;;;;;8.70;60.00;;;;;;5076447;28;19976;-73
2022/03/02 12:32:37;;;;;;;;;;;8.70;58.90;;;;;;5075818;28;19947;-73
2022/03/02 12:35:04;;;;;;;;;;;8.70;60.40;;;;;;5075574;28;19917;-72
2022/03/02 12:37:30;;;;;;;;;;;8.70;60.30;;;;;;5075722;28;19978;-73
2022/03/02 12:39:56;;;;;;;;;;;8.50;56.20;;;;;;5075530;28;19908;-73
2022/03/02 12:42:21;;;;;;;;;;;8.80;59.80;;;;;;5075087;28;19908;-73
2022/03/02 12:44:48;;;;;;;;;;;8.90;56.50;;;;;;5070370;28;19916;-73
2022/03/02 12:47:16;;;;;;;;;;;8.90;58.10;;;;;;5078822;28;20074;-74
2022/03/02 12:49:43;;;;;;;;;;;8.90;57.50;;;;;;5074131;28;20357;-74
2022/03/02 12:52:09;;;;;;;;;;;9.10;58.50;;;;;;5067296;28;19957;-72
2022/03/02 12:54:36;;;;;;;;;;;9.20;58.60;;;;;;5074747;28;20403;-73
2022/03/02 12:57:06;;;;;;;;;;;9.20;56.70;;;;;;5071876;28;19927;-74
2022/03/02 12:59:32;;;;;;;;;;;9.40;57.10;;;;;;5073638;28;19908;-74
2022/03/02 13:01:58;;;;;;;;;;;9.60;57.00;;;;;;5074391;28;19931;-73
2022/03/02 13:04:28;;;;;;;;;;;10.00;58.30;;;;;;5077821;28;19978;-74
2022/03/02 13:07:03;;;;;;;;;;;10.30;55.80;;;;;;5074273;28;19935;-73
2022/03/02 13:09:31;;;;;;;;;;;10.00;54.50;;;;;;5076894;28;20006;-73
2022/03/02 13:12:17;;;;;;;;;;;9.40;56.00;;;;;;5070709;28;20320;-73
2022/03/02 13:14:42;;;;;;;;;;;8.90;56.40;;;;;;5066944;28;19987;-73
2022/03/02 13:17:15;;;;;;;;;;;8.50;56.10;;;;;;5076708;28;19917;-73
2022/03/02 13:19:45;;;;;;;;;;;8.40;56.50;;;;;;5071197;28;19913;-74
2022/03/02 13:22:21;;;;;;;;;;;8.50;60.20;;;;;;5069937;28;19960;-73
2022/03/02 13:24:46;;;;;;;;;;;8.50;62.10;;;;;;5071096;28;19908;-73
2022/03/02 13:27:12;;;;;;;;;;;8.30;62.60;;;;;;5077719;28;19915;-73
2022/03/02 13:29:58;;;;;;;;;;;8.00;63.20;;;;;;5077067;28;20009;-73
2022/03/02 13:32:43;;;;;;;;;;;7.90;62.80;;;;;;5072945;28;19920;-73
2022/03/02 13:35:10;;;;;;;;;;;7.90;62.90;;;;;;5079116;28;19912;-73
2022/03/02 13:37:54;;;;;;;;;;;7.80;62.00;;;;;;5076471;28;19909;-74
2022/03/02 13:40:31;;;;;;;;;;;8.10;62.70;;;;;;5067998;28;20030;-73
2022/03/02 13:43:06;;;;;;;;;;;8.00;60.10;;;;;;5072148;28;19909;-73
2022/03/02 13:45:32;;;;;;;;;;;8.00;63.20;;;;;;5072289;28;19958;-73
2022/03/02 13:48:13;;;;;;;;;;;8.20;63.30;;;;;;5071581;28;19944;-72
2022/03/02 13:50:57;;;;;;;;;;;8.10;62.00;;;;;;5073009;28;19920;-73
2022/03/02 13:53:39;;;;;;;;;;;8.00;61.90;;;;;;5067916;28;19919;-73
2022/03/02 13:56:08;;;;;;;;;;;8.10;62.20;;;;;;5073207;28;19963;-73
2022/03/02 13:58:35;;;;;;;;;;;8.40;60.80;;;;;;5072244;28;19908;-73
2022/03/02 14:01:22;;;;;;;;;;;8.40;61.00;;;;;;5073004;28;19967;-72
2022/03/02 14:04:06;;;;;;;;;;;8.10;58.00;;;;;;5057815;28;19913;-73
2022/03/02 14:06:35;;;;;;;;;;;8.10;60.00;;;;;;5065825;28;19962;-73
2022/03/02 14:09:01;;;;;;;;;;;8.40;61.10;;;;;;5071440;28;20100;-73
2022/03/02 14:11:27;;;;;;;;;;;8.30;59.40;;;;;;5071551;28;19915;-73
2022/03/02 14:13:52;;;;;;;;;;;8.30;60.00;;;;;;5070333;28;19920;-73
2022/03/02 14:16:18;;;;;;;;;;;8.00;58.80;;;;;;5072570;28;19916;-73
2022/03/02 14:18:46;;;;;;;;;;;8.10;59.80;;;;;;5073584;28;19909;-73
2022/03/02 14:21:12;;;;;;;;;;;8.10;60.40;;;;;;5073026;28;19912;-73
2022/03/02 14:23:45;;;;;;;;;;;8.30;62.00;;;;;;5072406;28;19915;-73
2022/03/02 14:26:11;;;;;;;;;;;8.10;59.80;;;;;;5071990;28;19909;-73
2022/03/02 14:28:40;;;;;;;;;;;8.00;60.40;;;;;;5071912;28;19962;-73
2022/03/02 14:31:07;;;;;;;;;;;8.00;63.10;;;;;;5071758;28;19913;-73
2022/03/02 14:33:33;;;;;;;;;;;8.00;64.60;;;;;;5071083;28;19913;-73
2022/03/02 14:35:58;;;;;;;;;;;8.00;63.00;;;;;;5071689;28;19930;-73
2022/03/02 14:38:24;;;;;;;;;;;8.00;64.30;;;;;;5071867;28;20347;-73